Time;durP1;ratioP1;P1;durP2;ratioP2;P2;SDS_P1;SDS_P2;PMS_P1;PMS_P2;Temp;Humidity;BMP_temperature;BMP_pressure;BME280_temperature;BME280_humidity;BME280_pressure;Samples;Min_cycle;Max_cycle;Signal;HPM_P1;HPM_P2
2021/08/29 00:01:38;;;;;;;5.60;5.10;;;16.80;99.90;;;;;;5076306;28;20462;-72
2021/08/29 00:04:05;;;;;;;6.50;5.60;;;16.80;99.90;;;;;;5075731;28;20984;-72
2021/08/29 00:06:31;;;;;;;6.53;5.70;;;16.80;99.90;;;;;;5075948;28;20781;-72
2021/08/29 00:08:59;;;;;;;5.43;4.90;;;16.80;99.90;;;;;;5075776;28;20532;-72
2021/08/29 00:11:26;;;;;;;5.37;4.87;;;16.90;99.90;;;;;;5076011;28;20462;-72
2021/08/29 00:13:53;;;;;;;6.00;5.40;;;16.90;99.90;;;;;;5075793;28;20454;-72
2021/08/29 00:16:21;;;;;;;6.70;6.10;;;16.90;99.90;;;;;;5075566;28;20458;-72
2021/08/29 00:18:48;;;;;;;6.83;6.20;;;16.90;99.90;;;;;;5075563;28;20806;-71
2021/08/29 00:21:15;;;;;;;5.73;5.10;;;16.90;99.90;;;;;;5075439;28;20462;-71
2021/08/29 00:23:43;;;;;;;7.20;6.30;;;16.90;99.90;;;;;;5075787;28;20462;-72
2021/08/29 00:26:11;;;;;;;11.30;6.47;;;16.90;99.90;;;;;;5075209;28;20789;-71
2021/08/29 00:28:37;;;;;;;8.47;7.57;;;16.90;99.90;;;;;;5075330;28;20447;-71
2021/08/29 00:31:04;;;;;;;6.73;6.03;;;16.90;99.90;;;;;;5075916;28;20932;-71
2021/08/29 00:33:31;;;;;;;6.93;6.33;;;16.90;99.90;;;;;;5075460;28;20462;-72
2021/08/29 00:35:58;;;;;;;7.53;6.73;;;16.90;99.90;;;;;;5075452;28;20869;-72
2021/08/29 00:38:25;;;;;;;9.20;6.87;;;16.90;99.90;;;;;;5075316;28;20573;-72
2021/08/29 00:40:52;;;;;;;7.07;6.47;;;16.80;99.90;;;;;;5075194;28;20465;-72
2021/08/29 00:43:20;;;;;;;7.17;6.07;;;16.80;99.90;;;;;;5074934;28;20482;-72
2021/08/29 00:45:48;;;;;;;6.63;6.03;;;16.90;99.90;;;;;;5075261;28;20458;-72
2021/08/29 00:48:15;;;;;;;6.60;5.90;;;16.80;99.90;;;;;;5075441;28;20458;-72
2021/08/29 00:50:44;;;;;;;6.77;6.07;;;16.80;99.90;;;;;;5075676;28;20515;-73
2021/08/29 00:53:12;;;;;;;6.07;5.47;;;16.80;99.90;;;;;;5076056;28;20465;-72
2021/08/29 00:55:39;;;;;;;6.77;6.07;;;16.80;99.90;;;;;;5075810;28;20454;-72
2021/08/29 00:58:06;;;;;;;6.70;6.10;;;16.70;99.90;;;;;;5076180;28;20483;-72
2021/08/29 01:00:38;;;;;;;7.17;5.93;;;16.80;99.90;;;;;;5075041;28;20461;-72
2021/08/29 01:03:05;;;;;;;6.60;5.77;;;16.80;99.90;;;;;;5075560;28;20516;-72
2021/08/29 01:05:38;;;;;;;6.03;5.53;;;16.80;99.90;;;;;;5075072;28;20465;-72
2021/08/29 01:08:09;;;;;;;6.80;5.60;;;16.70;99.90;;;;;;5075511;28;20450;-71
2021/08/29 01:10:40;;;;;;;5.60;5.10;;;16.70;99.90;;;;;;5074538;28;20501;-71
2021/08/29 01:13:09;;;;;;;6.67;5.97;;;16.70;99.90;;;;;;5075167;28;20949;-72
2021/08/29 01:15:38;;;;;;;6.00;5.40;;;16.70;99.90;;;;;;5075082;28;20744;-71
2021/08/29 01:18:07;;;;;;;6.57;5.87;;;16.70;99.90;;;;;;5074655;28;20482;-72
2021/08/29 01:20:44;;;;;;;7.17;6.20;;;16.80;99.90;;;;;;5074835;28;20474;-71
2021/08/29 01:23:12;;;;;;;6.47;5.87;;;16.70;99.90;;;;;;5074758;28;20461;-71
2021/08/29 01:25:45;;;;;;;5.90;5.40;;;16.80;99.90;;;;;;5074536;28;20454;-71
2021/08/29 01:28:14;;;;;;;5.60;5.10;;;16.80;99.90;;;;;;5074665;28;20459;-71
2021/08/29 01:30:43;;;;;;;5.77;5.20;;;16.80;99.90;;;;;;5073803;28;20477;-71
2021/08/29 01:33:11;;;;;;;5.47;4.97;;;16.80;99.90;;;;;;5074186;28;20818;-72
2021/08/29 01:35:39;;;;;;;5.53;5.03;;;16.80;99.90;;;;;;5074345;28;20462;-71
2021/08/29 01:38:07;;;;;;;6.23;5.63;;;16.80;99.90;;;;;;5073856;28;20474;-71
2021/08/29 01:40:35;;;;;;;5.33;4.83;;;16.80;99.90;;;;;;5074405;28;20747;-71
2021/08/29 01:43:03;;;;;;;6.40;5.77;;;16.80;99.90;;;;;;5074054;28;20493;-71
2021/08/29 01:45:31;;;;;;;6.40;5.80;;;16.80;99.90;;;;;;5074124;28;20914;-71
2021/08/29 01:48:01;;;;;;;6.23;5.67;;;16.80;99.90;;;;;;5074288;28;20454;-71
2021/08/29 01:50:28;;;;;;;6.73;5.23;;;16.90;99.90;;;;;;5074496;28;20479;-71
2021/08/29 01:52:55;;;;;;;6.03;5.43;;;16.80;99.90;;;;;;5074197;28;20462;-71
2021/08/29 01:55:21;;;;;;;5.60;5.10;;;16.80;99.90;;;;;;5074477;28;20745;-71
2021/08/29 01:57:48;;;;;;;7.37;5.47;;;16.80;99.90;;;;;;5074588;28;20842;-71
2021/08/29 02:00:15;;;;;;;4.77;4.37;;;16.70;99.90;;;;;;5073985;28;20469;-70
2021/08/29 02:02:42;;;;;;;5.07;4.67;;;16.70;99.90;;;;;;5074029;28;20449;-71
2021/08/29 02:05:11;;;;;;;6.80;4.30;;;16.70;99.90;;;;;;5074309;28;20461;-71
2021/08/29 02:07:42;;;;;;;5.50;5.00;;;16.60;99.90;;;;;;5075198;28;20493;-71
2021/08/29 02:10:11;;;;;;;6.07;5.40;;;16.60;99.90;;;;;;5075305;28;20448;-71
2021/08/29 02:12:43;;;;;;;5.30;4.60;;;16.60;99.90;;;;;;5075609;28;20454;-71
2021/08/29 02:15:16;;;;;;;5.60;5.03;;;16.60;99.90;;;;;;5075750;28;20473;-71
2021/08/29 02:17:43;;;;;;;5.17;4.20;;;16.70;99.90;;;;;;5076554;28;20470;-71
2021/08/29 02:20:15;;;;;;;5.47;4.73;;;16.70;99.90;;;;;;5075733;28;20458;-71
2021/08/29 02:22:42;;;;;;;3.90;3.60;;;16.70;99.90;;;;;;5074728;28;20438;-71
2021/08/29 02:25:10;;;;;;;5.33;3.63;;;16.70;99.90;;;;;;5074949;28;20461;-72
2021/08/29 02:27:38;;;;;;;4.00;3.40;;;16.70;99.90;;;;;;5076458;28;20531;-71
2021/08/29 02:30:07;;;;;;;3.80;3.50;;;16.70;99.90;;;;;;5076005;28;20454;-71
2021/08/29 02:32:36;;;;;;;3.53;3.20;;;16.70;99.90;;;;;;5077227;28;20454;-71
2021/08/29 02:35:04;;;;;;;3.17;2.93;;;16.60;99.90;;;;;;5077131;28;20469;-72
2021/08/29 02:37:32;;;;;;;3.37;3.10;;;16.60;99.90;;;;;;5077017;28;20481;-72
2021/08/29 02:40:00;;;;;;;3.93;3.53;;;16.60;99.90;;;;;;5077721;28;20523;-72
2021/08/29 02:42:28;;;;;;;3.57;3.23;;;16.60;99.90;;;;;;5079223;28;20486;-71
2021/08/29 02:44:56;;;;;;;3.87;2.97;;;16.60;99.90;;;;;;5081456;28;20481;-72
2021/08/29 02:47:23;;;;;;;3.50;2.93;;;16.60;99.90;;;;;;5080000;28;20446;-72
2021/08/29 02:49:53;;;;;;;3.20;2.90;;;16.60;99.90;;;;;;5080394;28;20465;-71
2021/08/29 02:52:20;;;;;;;3.80;3.50;;;16.60;99.90;;;;;;5080841;28;20473;-71
2021/08/29 02:54:50;;;;;;;3.23;2.93;;;16.60;99.90;;;;;;5080453;28;20453;-71
2021/08/29 02:57:19;;;;;;;2.50;2.30;;;16.60;99.90;;;;;;5078104;28;20486;-71
2021/08/29 02:59:46;;;;;;;3.03;2.43;;;16.50;99.90;;;;;;5077253;28;20493;-71
2021/08/29 03:02:13;;;;;;;2.50;2.30;;;16.50;99.90;;;;;;5077553;28;20462;-72
2021/08/29 03:04:40;;;;;;;2.43;2.23;;;16.60;99.90;;;;;;5077225;28;20541;-71
2021/08/29 03:07:08;;;;;;;2.33;2.13;;;16.50;99.90;;;;;;5077416;28;20515;-72
2021/08/29 03:09:35;;;;;;;2.60;2.40;;;16.50;99.90;;;;;;5077199;28;20457;-72
2021/08/29 03:12:05;;;;;;;2.73;2.17;;;16.50;99.90;;;;;;5077436;28;20520;-71
2021/08/29 03:14:33;;;;;;;2.33;2.13;;;16.50;99.90;;;;;;5077793;28;20462;-71
2021/08/29 03:17:01;;;;;;;2.20;2.00;;;16.50;99.90;;;;;;5076899;28;20454;-72
2021/08/29 03:19:28;;;;;;;2.53;1.67;;;16.50;99.90;;;;;;5076965;28;20458;-72
2021/08/29 03:21:55;;;;;;;2.13;1.93;;;16.50;99.90;;;;;;5076836;28;20463;-71
2021/08/29 03:24:22;;;;;;;2.43;2.23;;;16.50;99.90;;;;;;5077077;28;20450;-72
2021/08/29 03:26:49;;;;;;;2.23;2.03;;;16.50;99.90;;;;;;5076784;28;20462;-72
2021/08/29 03:29:18;;;;;;;1.70;1.50;;;16.40;99.90;;;;;;5076944;28;20838;-71
2021/08/29 03:31:44;;;;;;;2.40;2.20;;;16.50;99.90;;;;;;5076918;28;20454;-72
2021/08/29 03:34:17;;;;;;;1.80;1.60;;;16.40;99.90;;;;;;5076756;28;20457;-71
2021/08/29 03:36:44;;;;;;;1.60;1.50;;;16.40;99.90;;;;;;5076245;28;20891;-71
2021/08/29 03:39:12;;;;;;;1.47;1.37;;;16.40;99.90;;;;;;5076535;28;20478;-71
2021/08/29 03:41:40;;;;;;;1.60;1.50;;;16.30;99.90;;;;;;5076641;28;20516;-72
2021/08/29 03:44:08;;;;;;;1.47;1.33;;;16.30;99.90;;;;;;5075381;28;20561;-71
2021/08/29 03:46:36;;;;;;;1.40;1.10;;;16.30;99.90;;;;;;5076813;28;20462;-71
2021/08/29 03:49:04;;;;;;;1.30;1.17;;;16.30;99.90;;;;;;5076483;28;20478;-71
2021/08/29 03:51:32;;;;;;;1.40;1.17;;;16.30;99.90;;;;;;5076432;28;20461;-71
2021/08/29 03:54:00;;;;;;;1.40;1.30;;;16.30;99.90;;;;;;5075638;28;20527;-71
2021/08/29 03:56:28;;;;;;;1.37;1.27;;;16.30;99.90;;;;;;5076541;28;20769;-71
2021/08/29 03:58:55;;;;;;;1.30;1.17;;;16.30;99.90;;;;;;5076197;28;20474;-70
2021/08/29 04:01:22;;;;;;;1.53;1.30;;;16.20;99.90;;;;;;5076085;28;20511;-70
2021/08/29 04:03:51;;;;;;;1.30;1.10;;;16.20;99.90;;;;;;5075740;28;20477;-71
2021/08/29 04:06:18;;;;;;;1.87;1.30;;;16.20;99.90;;;;;;5076227;28;20793;-71
2021/08/29 04:08:47;;;;;;;1.30;1.20;;;16.30;99.90;;;;;;5076071;28;20450;-71
2021/08/29 04:11:15;;;;;;;1.90;1.30;;;16.30;99.90;;;;;;5075862;28;20469;-71
2021/08/29 04:13:43;;;;;;;1.40;1.20;;;16.30;99.90;;;;;;5075463;28;20469;-71
2021/08/29 04:16:10;;;;;;;1.70;1.53;;;16.30;99.90;;;;;;5075784;28;20474;-71
2021/08/29 04:18:41;;;;;;;1.40;1.10;;;16.30;99.90;;;;;;5075306;28;20494;-71
2021/08/29 04:21:09;;;;;;;1.50;1.30;;;16.30;99.90;;;;;;5075845;28;20764;-71
2021/08/29 04:23:37;;;;;;;1.20;1.10;;;16.30;99.90;;;;;;5075557;28;20540;-71
2021/08/29 04:26:04;;;;;;;1.27;1.10;;;16.30;99.90;;;;;;5075623;28;20462;-71
2021/08/29 04:28:31;;;;;;;1.10;0.93;;;16.30;99.90;;;;;;5075188;28;20454;-71
2021/08/29 04:31:00;;;;;;;1.30;1.10;;;16.30;99.90;;;;;;5075393;28;20458;-71
2021/08/29 04:33:28;;;;;;;1.60;1.37;;;16.40;99.90;;;;;;5075651;28;20454;-71
2021/08/29 04:35:55;;;;;;;1.87;1.30;;;16.30;99.90;;;;;;5075397;28;20458;-71
2021/08/29 04:38:23;;;;;;;1.50;1.30;;;16.30;99.90;;;;;;5075095;28;20482;-71
2021/08/29 04:40:50;;;;;;;1.40;1.30;;;16.30;99.90;;;;;;5075442;28;20469;-71
2021/08/29 04:43:16;;;;;;;1.80;1.60;;;16.40;99.90;;;;;;5074809;28;20486;-71
2021/08/29 04:45:43;;;;;;;1.90;1.70;;;16.40;99.90;;;;;;5075181;28;20453;-71
2021/08/29 04:48:10;;;;;;;1.40;1.20;;;16.40;99.90;;;;;;5074956;28;20922;-71
2021/08/29 04:50:37;;;;;;;1.77;1.67;;;16.40;99.90;;;;;;5075504;28;20527;-71
2021/08/29 04:53:03;;;;;;;1.70;1.60;;;16.40;99.90;;;;;;5074977;28;20454;-72
2021/08/29 04:55:31;;;;;;;1.70;1.60;;;16.40;99.90;;;;;;5075031;28;20535;-71
2021/08/29 04:57:58;;;;;;;1.90;1.80;;;16.50;99.90;;;;;;5075836;28;20478;-72
2021/08/29 05:00:25;;;;;;;1.70;1.53;;;16.40;99.90;;;;;;5074955;28;20450;-72
2021/08/29 05:02:52;;;;;;;1.90;1.60;;;16.50;99.90;;;;;;5074813;28;20926;-71
2021/08/29 05:05:18;;;;;;;3.20;2.10;;;16.50;99.90;;;;;;5074361;28;20459;-71
2021/08/29 05:07:47;;;;;;;2.30;2.10;;;16.40;99.90;;;;;;5074354;28;20462;-71
2021/08/29 05:10:14;;;;;;;2.30;2.10;;;16.40;99.90;;;;;;5074781;28;20454;-71
2021/08/29 05:12:42;;;;;;;2.40;2.20;;;16.40;99.90;;;;;;5074713;28;20458;-71
2021/08/29 05:15:10;;;;;;;2.30;2.10;;;16.40;99.90;;;;;;5074617;28;20463;-71
2021/08/29 05:17:36;;;;;;;2.63;2.43;;;16.40;99.90;;;;;;5074959;28;20462;-71
2021/08/29 05:20:04;;;;;;;3.73;3.17;;;16.40;99.90;;;;;;5074600;28;20975;-74
2021/08/29 05:22:30;;;;;;;3.13;2.93;;;16.40;99.90;;;;;;5077640;28;20462;-72
2021/08/29 05:24:57;;;;;;;3.90;3.50;;;16.30;99.90;;;;;;5079949;28;20458;-72
2021/08/29 05:27:24;;;;;;;3.67;3.10;;;16.30;99.90;;;;;;5074646;28;20454;-72
2021/08/29 05:29:52;;;;;;;3.80;3.07;;;16.30;99.90;;;;;;5074623;28;20458;-72
2021/08/29 05:32:18;;;;;;;4.00;3.60;;;16.30;99.90;;;;;;5074611;28;20461;-72
2021/08/29 05:34:45;;;;;;;4.63;3.67;;;16.20;99.90;;;;;;5074696;28;20783;-72
2021/08/29 05:37:12;;;;;;;4.13;3.73;;;16.20;99.90;;;;;;5074524;28;20465;-71
2021/08/29 05:39:38;;;;;;;3.60;3.30;;;16.20;99.90;;;;;;5074145;28;20484;-72
2021/08/29 05:42:05;;;;;;;5.17;4.40;;;16.20;99.90;;;;;;5074161;28;20458;-72
2021/08/29 05:44:32;;;;;;;4.20;3.80;;;16.20;99.90;;;;;;5074192;28;20984;-71
2021/08/29 05:47:00;;;;;;;5.00;4.50;;;16.20;99.90;;;;;;5074339;28;20511;-71
2021/08/29 05:49:27;;;;;;;4.67;4.27;;;16.10;99.90;;;;;;5073853;28;20907;-71
2021/08/29 05:51:53;;;;;;;4.57;3.77;;;16.10;99.90;;;;;;5074039;28;20450;-71
2021/08/29 05:54:20;;;;;;;4.70;4.20;;;16.10;99.90;;;;;;5074364;28;20457;-71
2021/08/29 05:56:47;;;;;;;5.00;4.50;;;16.00;99.90;;;;;;5074225;28;20458;-71
2021/08/29 05:59:13;;;;;;;4.40;4.00;;;16.10;99.90;;;;;;5074135;28;20497;-69
2021/08/29 06:01:41;;;;;;;7.20;3.90;;;16.10;99.90;;;;;;5074279;28;20461;-71
2021/08/29 06:04:10;;;;;;;4.50;3.87;;;16.10;99.90;;;;;;5073866;28;20454;-71
2021/08/29 06:06:36;;;;;;;6.53;3.87;;;16.10;99.90;;;;;;5074198;28;20454;-71
2021/08/29 06:09:04;;;;;;;5.10;4.23;;;16.10;99.90;;;;;;5074816;28;20531;-71
2021/08/29 06:11:30;;;;;;;5.57;4.40;;;16.10;99.90;;;;;;5073915;28;20454;-71
2021/08/29 06:13:57;;;;;;;5.20;4.40;;;16.10;99.90;;;;;;5074341;28;20465;-71
2021/08/29 06:16:24;;;;;;;5.20;4.70;;;16.10;99.90;;;;;;5073859;28;20454;-71
2021/08/29 06:18:50;;;;;;;4.97;4.50;;;16.10;99.90;;;;;;5077823;28;20486;-71
2021/08/29 06:21:19;;;;;;;5.10;4.60;;;16.10;99.90;;;;;;5077811;28;20458;-71
2021/08/29 06:23:46;;;;;;;5.37;4.13;;;16.00;99.90;;;;;;5077691;28;20949;-70
2021/08/29 06:26:13;;;;;;;4.67;4.10;;;16.00;99.90;;;;;;5077737;28;20799;-70
2021/08/29 06:28:40;;;;;;;4.80;4.33;;;16.00;99.90;;;;;;5077700;28;20457;-71
2021/08/29 06:31:07;;;;;;;6.87;5.03;;;16.00;99.90;;;;;;5077815;28;20466;-71
2021/08/29 06:33:33;;;;;;;4.63;4.23;;;16.00;99.90;;;;;;5077782;28;20453;-72
2021/08/29 06:36:00;;;;;;;4.40;3.83;;;16.00;99.90;;;;;;5077208;28;20457;-70
2021/08/29 06:38:28;;;;;;;5.13;4.63;;;16.00;99.90;;;;;;5077490;28;20485;-70
2021/08/29 06:40:55;;;;;;;4.80;4.10;;;16.00;99.90;;;;;;5077298;28;20488;-71
2021/08/29 06:43:22;;;;;;;5.13;4.50;;;16.00;99.90;;;;;;5077039;28;20510;-70
2021/08/29 06:45:48;;;;;;;4.33;3.93;;;16.00;99.90;;;;;;5077502;28;20473;-70
2021/08/29 06:48:15;;;;;;;4.13;3.73;;;16.00;99.90;;;;;;5078086;28;20485;-70
2021/08/29 06:50:42;;;;;;;4.80;3.80;;;15.90;99.90;;;;;;5076891;28;20936;-71
2021/08/29 06:53:08;;;;;;;4.67;4.27;;;15.90;99.90;;;;;;5077275;28;20469;-70
2021/08/29 06:55:36;;;;;;;4.40;3.97;;;15.80;99.90;;;;;;5077284;28;20457;-71
2021/08/29 06:58:03;;;;;;;4.20;3.80;;;15.70;99.90;;;;;;5077161;28;20469;-70
2021/08/29 07:00:30;;;;;;;5.30;3.93;;;15.70;99.90;;;;;;5076732;28;20588;-70
2021/08/29 07:02:56;;;;;;;3.83;3.40;;;15.60;99.90;;;;;;5077066;28;20462;-69
2021/08/29 07:05:25;;;;;;;4.50;3.70;;;15.60;99.90;;;;;;5076561;28;20462;-71
2021/08/29 07:07:51;;;;;;;3.70;3.30;;;15.50;99.90;;;;;;5076940;28;20508;-72
2021/08/29 07:10:18;;;;;;;4.27;3.87;;;15.50;99.90;;;;;;5077248;28;20465;-71
2021/08/29 07:12:46;;;;;;;4.10;3.70;;;15.50;99.90;;;;;;5076922;28;20458;-71
2021/08/29 07:15:14;;;;;;;5.47;4.00;;;15.50;99.90;;;;;;5077344;28;20796;-70
2021/08/29 07:17:41;;;;;;;6.50;3.63;;;15.50;99.90;;;;;;5076712;28;20466;-70
2021/08/29 07:20:09;;;;;;;5.70;4.40;;;15.50;99.90;;;;;;5076655;28;20487;-70
2021/08/29 07:22:36;;;;;;;3.70;3.40;;;15.60;99.90;;;;;;5076332;28;20454;-69
2021/08/29 07:25:02;;;;;;;4.17;3.67;;;15.60;99.90;;;;;;5076504;28;20489;-71
2021/08/29 07:27:29;;;;;;;4.50;3.20;;;15.60;99.90;;;;;;5076984;28;20458;-69
2021/08/29 07:29:57;;;;;;;6.33;3.73;;;15.60;99.90;;;;;;5075915;28;20464;-70
2021/08/29 07:32:24;;;;;;;4.50;3.40;;;15.60;99.90;;;;;;5076419;28;20512;-71
2021/08/29 07:34:51;;;;;;;3.83;3.43;;;15.70;99.90;;;;;;5076468;28;20462;-70
2021/08/29 07:37:18;;;;;;;3.40;3.00;;;15.70;99.90;;;;;;5076567;28;20776;-70
2021/08/29 07:39:44;;;;;;;4.30;3.90;;;15.70;99.90;;;;;;5076265;28;20474;-71
2021/08/29 07:42:11;;;;;;;3.97;3.53;;;15.70;99.90;;;;;;5076284;28;20497;-71
2021/08/29 07:44:41;;;;;;;3.97;3.30;;;15.70;99.90;;;;;;5076317;28;20439;-70
2021/08/29 07:47:09;;;;;;;4.20;3.80;;;15.70;99.90;;;;;;5076375;28;20458;-70
2021/08/29 07:49:36;;;;;;;4.10;3.70;;;15.70;99.90;;;;;;5076350;28;20790;-70
2021/08/29 07:52:02;;;;;;;3.77;3.27;;;15.70;99.90;;;;;;5075986;28;20458;-70
2021/08/29 07:54:29;;;;;;;4.07;3.67;;;15.70;99.90;;;;;;5076365;28;20791;-70
2021/08/29 07:56:56;;;;;;;4.43;4.00;;;15.80;99.90;;;;;;5076279;28;20462;-70
2021/08/29 07:59:22;;;;;;;6.27;4.10;;;15.70;99.90;;;;;;5075482;28;20934;-70
2021/08/29 08:01:49;;;;;;;6.20;4.70;;;15.80;99.90;;;;;;5075827;28;20906;-70
2021/08/29 08:04:17;;;;;;;5.60;5.03;;;15.80;99.90;;;;;;5075989;28;20838;-71
2021/08/29 08:06:44;;;;;;;6.07;5.20;;;15.80;99.90;;;;;;5075997;28;20458;-69
2021/08/29 08:09:10;;;;;;;6.83;5.97;;;15.80;99.90;;;;;;5076014;28;20458;-70
2021/08/29 08:11:37;;;;;;;6.03;5.33;;;15.80;99.90;;;;;;5075389;28;20915;-71
2021/08/29 08:14:05;;;;;;;7.13;5.93;;;15.70;99.90;;;;;;5075977;28;20500;-71
2021/08/29 08:16:32;;;;;;;8.50;6.43;;;15.80;99.90;;;;;;5075265;28;20458;-71
2021/08/29 08:18:59;;;;;;;6.90;5.97;;;15.70;99.90;;;;;;5075480;28;20478;-71
2021/08/29 08:21:27;;;;;;;8.13;6.13;;;15.80;99.90;;;;;;5075335;28;20515;-71
2021/08/29 08:23:54;;;;;;;7.60;6.57;;;15.80;99.90;;;;;;5075735;28;20454;-70
2021/08/29 08:26:22;;;;;;;7.40;6.40;;;15.80;99.90;;;;;;5075426;28;20458;-70
2021/08/29 08:28:50;;;;;;;6.13;5.50;;;15.80;99.90;;;;;;5076311;28;20553;-71
2021/08/29 08:31:17;;;;;;;7.77;5.90;;;15.80;99.90;;;;;;5076636;28;20469;-71
2021/08/29 08:33:44;;;;;;;6.50;5.50;;;15.80;99.90;;;;;;5076698;28;20469;-71
2021/08/29 08:36:16;;;;;;;5.80;5.10;;;15.80;99.90;;;;;;5076487;28;20469;-71
2021/08/29 08:38:44;;;;;;;7.43;5.93;;;16.00;99.90;;;;;;5077047;28;20786;-73
2021/08/29 08:41:10;;;;;;;5.10;4.60;;;16.00;99.90;;;;;;5075650;28;20527;-71
2021/08/29 08:43:41;;;;;;;5.57;4.77;;;16.10;99.90;;;;;;5075183;28;20588;-73
2021/08/29 08:46:12;;;;;;;5.10;4.00;;;16.20;99.90;;;;;;5075460;28;20451;-71
2021/08/29 08:48:40;;;;;;;5.97;4.30;;;16.30;99.90;;;;;;5075202;28;20895;-71
2021/08/29 08:51:08;;;;;;;4.20;3.80;;;16.40;99.90;;;;;;5075274;28;20963;-71
2021/08/29 08:53:38;;;;;;;3.10;2.80;;;16.40;99.90;;;;;;5075340;28;20462;-72
2021/08/29 08:56:06;;;;;;;3.37;2.70;;;16.50;99.90;;;;;;5075266;28;20454;-70
2021/08/29 08:58:39;;;;;;;3.00;2.70;;;16.50;99.90;;;;;;5075085;28;20458;-72
2021/08/29 09:01:08;;;;;;;2.90;2.27;;;16.50;99.90;;;;;;5075571;28;20539;-71
2021/08/29 09:03:35;;;;;;;3.60;2.67;;;16.50;99.90;;;;;;5075721;28;20454;-72
2021/08/29 09:06:03;;;;;;;2.33;2.13;;;16.50;99.90;;;;;;5076213;28;20458;-71
2021/08/29 09:08:30;;;;;;;2.83;2.53;;;16.50;99.90;;;;;;5076744;28;20458;-71
2021/08/29 09:10:57;;;;;;;2.47;2.27;;;16.50;99.90;;;;;;5077866;28;20459;-71
2021/08/29 09:13:25;;;;;;;3.90;2.70;;;16.60;99.90;;;;;;5076734;28;20458;-73
2021/08/29 09:16:11;;;;;;;2.90;2.70;;;16.80;99.90;;;;;;5078361;28;20454;-72
2021/08/29 09:18:46;;;;;;;2.60;2.40;;;17.00;99.90;;;;;;5077221;28;20454;-72
2021/08/29 09:21:19;;;;;;;2.27;2.00;;;17.10;99.90;;;;;;5075968;28;20462;-72
2021/08/29 09:23:45;;;;;;;2.10;1.90;;;17.20;99.90;;;;;;5075551;28;20443;-73
2021/08/29 09:26:12;;;;;;;3.53;2.13;;;17.30;99.90;;;;;;5075681;28;20458;-72
2021/08/29 09:28:40;;;;;;;2.30;2.10;;;17.40;99.90;;;;;;5075315;28;20473;-72
2021/08/29 09:31:07;;;;;;;2.00;1.80;;;17.60;99.90;;;;;;5074954;28;20546;-71
2021/08/29 09:33:34;;;;;;;1.60;1.50;;;17.70;99.90;;;;;;5074283;28;20465;-71
2021/08/29 09:36:01;;;;;;;1.70;1.60;;;17.80;99.90;;;;;;5074506;28;20806;-71
2021/08/29 09:38:38;;;;;;;1.90;1.47;;;17.90;99.90;;;;;;5074940;28;20466;-71
2021/08/29 09:41:04;;;;;;;2.10;1.90;;;18.00;99.90;;;;;;5074049;28;20481;-71
2021/08/29 09:43:37;;;;;;;2.10;1.90;;;17.90;99.90;;;;;;5074058;28;20966;-71
2021/08/29 09:46:08;;;;;;;1.57;1.47;;;17.90;99.90;;;;;;5074547;28;20455;-70
2021/08/29 09:48:35;;;;;;;1.63;1.50;;;17.90;99.90;;;;;;5074423;28;20518;-71
2021/08/29 09:51:02;;;;;;;1.50;1.37;;;17.90;99.90;;;;;;5074315;28;20466;-71
2021/08/29 09:53:28;;;;;;;1.70;1.57;;;18.10;99.90;;;;;;5073871;28;20454;-71
2021/08/29 09:55:55;;;;;;;1.80;1.70;;;18.20;99.90;;;;;;5073876;28;20516;-71
2021/08/29 09:58:24;;;;;;;1.57;1.23;;;18.20;99.90;;;;;;5074401;28;20903;-71
2021/08/29 10:01:09;;;;;;;1.47;1.23;;;18.30;99.90;;;;;;5074212;28;20819;-71
2021/08/29 10:03:37;;;;;;;1.30;1.00;;;18.40;99.90;;;;;;5074343;28;20439;-70
2021/08/29 10:06:17;;;;;;;1.27;1.10;;;18.40;99.90;;;;;;5074127;28;20455;-70
2021/08/29 10:08:45;;;;;;;1.40;1.30;;;18.50;99.90;;;;;;5074219;28;20442;-71
2021/08/29 10:11:13;;;;;;;1.50;0.80;;;18.50;99.90;;;;;;5074268;28;20450;-70
2021/08/29 10:13:40;;;;;;;1.20;0.90;;;18.60;99.90;;;;;;5074164;28;20454;-71
2021/08/29 10:16:12;;;;;;;1.37;1.00;;;18.80;99.90;;;;;;5073873;28;20455;-71
2021/08/29 10:18:41;;;;;;;1.30;0.93;;;18.90;99.90;;;;;;5073937;28;20520;-71
2021/08/29 10:21:13;;;;;;;1.10;0.90;;;19.00;99.90;;;;;;5073991;28;20490;-70
2021/08/29 10:23:41;;;;;;;1.20;1.00;;;19.20;99.90;;;;;;5073586;28;20458;-70
2021/08/29 10:26:09;;;;;;;2.23;1.07;;;19.20;99.90;;;;;;5074202;28;20465;-72
2021/08/29 10:28:39;;;;;;;1.23;1.00;;;19.10;99.90;;;;;;5076209;28;20523;-72
2021/08/29 10:31:12;;;;;;;1.20;0.70;;;19.00;99.90;;;;;;5075356;28;20469;-72
2021/08/29 10:33:47;;;;;;;1.10;0.80;;;19.00;99.90;;;;;;5075230;28;20443;-71
2021/08/29 10:36:14;;;;;;;1.30;0.80;;;19.00;99.90;;;;;;5074805;28;20441;-71
2021/08/29 10:38:42;;;;;;;1.10;0.80;;;19.00;99.90;;;;;;5076381;28;20895;-71
2021/08/29 10:41:09;;;;;;;1.23;1.00;;;19.00;99.90;;;;;;5074196;28;20474;-71
2021/08/29 10:43:39;;;;;;;1.07;0.87;;;19.00;99.90;;;;;;5075044;28;20485;-71
2021/08/29 10:46:08;;;;;;;1.20;1.10;;;18.90;99.90;;;;;;5074268;28;20469;-71
2021/08/29 10:48:37;;;;;;;1.20;0.93;;;18.90;99.90;;;;;;5073814;28;20473;-71
2021/08/29 10:51:04;;;;;;;1.10;0.70;;;18.90;99.90;;;;;;5076026;28;20512;-71
2021/08/29 10:53:33;;;;;;;1.00;0.73;;;19.00;99.90;;;;;;5076859;28;20769;-72
2021/08/29 10:56:32;;;;;;;1.27;0.80;;;19.10;99.90;;;;;;5076349;28;20466;-71
2021/08/29 10:59:21;;;;;;;1.10;0.60;;;19.30;99.90;;;;;;5078790;28;20446;-73
2021/08/29 11:01:51;;;;;;;1.03;0.70;;;19.50;99.90;;;;;;5077003;28;20961;-72
2021/08/29 11:04:46;;;;;;;1.90;0.60;;;19.60;99.90;;;;;;5078780;28;20541;-72
2021/08/29 11:07:33;;;;;;;1.00;0.70;;;19.80;99.90;;;;;;5080900;28;20445;-72
2021/08/29 11:10:00;;;;;;;1.10;0.60;;;20.00;99.90;;;;;;5081480;28;20451;-72
2021/08/29 11:12:31;;;;;;;1.10;0.60;;;20.10;99.90;;;;;;5081534;28;20480;-71
2021/08/29 11:15:00;;;;;;;1.00;0.70;;;20.20;99.90;;;;;;5079255;28;20464;-72
2021/08/29 11:17:29;;;;;;;1.00;0.73;;;20.30;99.90;;;;;;5079373;28;20497;-71
2021/08/29 11:20:13;;;;;;;1.00;0.60;;;20.30;99.90;;;;;;5078411;28;20492;-71
2021/08/29 11:22:42;;;;;;;1.20;0.90;;;20.40;99.90;;;;;;5078684;28;20453;-72
2021/08/29 11:25:20;;;;;;;1.00;0.60;;;20.40;99.90;;;;;;5078388;28;20783;-72
2021/08/29 11:28:05;;;;;;;1.00;0.77;;;20.30;99.90;;;;;;5078182;28;20503;-72
2021/08/29 11:30:49;;;;;;;1.00;0.60;;;20.20;99.90;;;;;;5077655;28;20450;-72
2021/08/29 11:33:26;;;;;;;1.00;0.67;;;20.10;99.90;;;;;;5078007;28;20438;-72
2021/08/29 11:35:54;;;;;;;1.20;0.80;;;20.30;99.90;;;;;;5078108;28;20434;-71
2021/08/29 11:38:33;;;;;;;1.00;0.70;;;20.50;99.90;;;;;;5077541;28;20760;-72
2021/08/29 11:41:02;;;;;;;1.10;0.70;;;20.50;99.90;;;;;;5076660;28;20521;-72
2021/08/29 11:43:38;;;;;;;1.00;0.70;;;20.60;99.90;;;;;;5076306;28;20475;-71
2021/08/29 11:46:11;;;;;;;1.00;0.60;;;20.60;99.90;;;;;;5077010;28;20453;-71
2021/08/29 11:48:56;;;;;;;1.40;0.80;;;20.70;99.90;;;;;;5080125;28;20508;-72
2021/08/29 11:51:28;;;;;;;1.30;1.00;;;20.80;99.90;;;;;;5078342;28;20443;-72
2021/08/29 11:53:55;;;;;;;1.20;0.80;;;20.80;99.90;;;;;;5078831;28;20536;-71
2021/08/29 11:56:29;;;;;;;1.00;0.70;;;20.80;99.90;;;;;;5078811;28;20933;-72
2021/08/29 11:58:56;;;;;;;1.10;0.80;;;20.80;99.90;;;;;;5079239;28;20445;-72
2021/08/29 12:01:23;;;;;;;1.10;0.83;;;20.90;99.90;;;;;;5078507;28;20824;-72
2021/08/29 12:03:55;;;;;;;1.37;0.93;;;20.90;99.90;;;;;;5077971;28;20850;-72
2021/08/29 12:06:29;;;;;;;1.77;0.70;;;21.00;99.90;;;;;;5077027;28;20470;-72
2021/08/29 12:09:04;;;;;;;1.00;0.80;;;21.10;99.90;;;;;;5075809;28;20453;-72
2021/08/29 12:11:34;;;;;;;1.10;0.80;;;21.00;99.90;;;;;;5076550;28;20430;-72
2021/08/29 12:14:12;;;;;;;1.10;0.80;;;21.00;99.90;;;;;;5076309;28;20747;-72
2021/08/29 12:16:39;;;;;;;4.93;0.80;;;21.10;99.90;;;;;;5075944;28;20469;-72
2021/08/29 12:19:12;;;;;;;1.03;0.80;;;21.20;99.90;;;;;;5076220;28;20477;-72
2021/08/29 12:21:41;;;;;;;1.13;0.80;;;21.30;99.90;;;;;;5077532;28;20603;-77
2021/08/29 12:24:08;;;;;;;1.40;0.83;;;21.40;99.90;;;;;;5076302;28;20461;-77
2021/08/29 12:26:37;;;;;;;1.20;0.90;;;21.50;99.90;;;;;;5075833;28;20545;-77
2021/08/29 12:29:06;;;;;;;1.10;0.87;;;21.50;99.90;;;;;;5076318;28;20453;-78
2021/08/29 12:31:36;;;;;;;1.17;0.70;;;21.50;99.90;;;;;;5076443;28;20934;-77
2021/08/29 12:34:04;;;;;;;1.00;0.70;;;21.40;99.90;;;;;;5075944;28;20465;-78
2021/08/29 12:36:32;;;;;;;1.80;0.83;;;21.40;99.90;;;;;;5077823;28;20465;-77
2021/08/29 12:38:59;;;;;;;1.20;0.80;;;21.50;99.90;;;;;;5079174;28;20466;-77
2021/08/29 12:41:26;;;;;;;1.20;0.60;;;21.50;99.90;;;;;;5076986;28;20474;-77
2021/08/29 12:44:02;;;;;;;1.20;0.70;;;21.30;99.90;;;;;;5076167;28;20482;-78
2021/08/29 12:46:31;;;;;;;1.20;0.80;;;21.20;99.90;;;;;;5077731;28;20465;-77
2021/08/29 12:48:58;;;;;;;1.03;0.70;;;20.90;99.90;;;;;;5078135;28;20462;-78
2021/08/29 12:51:26;;;;;;;1.60;1.10;;;20.60;99.90;;;;;;5076714;28;20511;-78
2021/08/29 12:54:00;;;;;;;1.20;0.80;;;20.30;99.90;;;;;;5076727;28;20454;-77
2021/08/29 12:56:26;;;;;;;1.10;0.80;;;20.00;99.90;;;;;;5075844;28;20450;-77